Impacts METAR Board
IDs:

KRYW - Lago Vista/Allen Arp, TX, US

Updated at: 0800 UTC 13 Aug 2022
Potential Impact None Slight Moderate High
Time 12/20Z 12/21Z 12/22Z 12/23Z 13/00Z 13/01Z 13/02Z 13/03Z 13/04Z 13/05Z 13/06Z 13/07Z 13/08Z
Temp92 102 100 96 96 92 87 85 82 80 79 78 76
Dewpt64 63 62 63 63 64 67 68 67 68 67 66 64
Altim30.00 29.98 29.97 29.96 29.95 29.95 29.98 30.01 30.03 30.03 30.03 30.03 30.03
VIS10 10 10 10 10 10 10 10 10 10 10 10 10
CIG95 85 -- -- -- -- -- 70 -- 90 110 110 --
CoverBKNBKNSCTSCTSCTCLRSCTBKNCLRBKNBKNOVCCLR
FltCatVFRVFRVFRVFRVFRVFRVFRVFRVFRVFRVFRVFRVFR
WX--------------------------
WDir20906060808011011000000
WSpd4 7 9 10 8 8 7 7 0 0 0 0 0
WGst-- 14 18 14 -- -- -- -- -- -- -- -- --
Raw hourly METARs
KRYW 121955Z AUTO 02004KT 10SM BKN095 34/18 A3000 RMK AO2 T03360177
KRYW 122055Z AUTO 09007G14KT 10SM SCT070 BKN085 39/17 A2998 RMK AO2 T03870172
KRYW 122155Z AUTO 06009G18KT 10SM SCT070 38/17 A2997 RMK AO2 T03750168
KRYW 122255Z AUTO 06010G14KT 10SM SCT110 35/17 A2996 RMK AO2 T03530170
KRYW 122355Z AUTO 08008KT 10SM SCT120 36/17 A2995 RMK AO2 T03560170 10396 20335
KRYW 130055Z AUTO 08008KT 10SM CLR 34/18 A2995 RMK AO2 T03350175
KRYW 130155Z AUTO 11007KT 10SM SCT070 SCT085 30/20 A2998 RMK AO2 T03030195
KRYW 130255Z AUTO 11007KT 10SM BKN070 BKN085 29/20 A3001 RMK AO2 T02940200
KRYW 130355Z AUTO 00000KT 10SM CLR 28/20 A3003 RMK AO2 T02790196
KRYW 130455Z AUTO 00000KT 10SM BKN090 27/20 A3003 RMK AO2 T02680198
KRYW 130555Z AUTO 00000KT 10SM BKN110 26/19 A3003 RMK AO2 T02600192 10357 20260 403960223
KRYW 130655Z AUTO 00000KT 10SM OVC110 26/19 A3003 RMK AO2 T02570190
KRYW 130755Z AUTO 00000KT 10SM CLR 25/18 A3003 RMK AO2 T02470179